sensor_id;sensor_type;location;lat;lon;timestamp;P1;durP1;ratioP1;P2;durP2;ratioP2
9034;SDS011;4552;43.422;24.592;2022-11-15T00:00:03;26.40;;;13.27;;
9034;SDS011;4552;43.422;24.592;2022-11-15T00:02:31;29.43;;;13.90;;
9034;SDS011;4552;43.422;24.592;2022-11-15T00:04:57;24.80;;;12.30;;
9034;SDS011;4552;43.422;24.592;2022-11-15T00:07:25;27.00;;;12.73;;
9034;SDS011;4552;43.422;24.592;2022-11-15T00:09:52;27.60;;;12.47;;
9034;SDS011;4552;43.422;24.592;2022-11-15T00:12:20;29.53;;;13.43;;
9034;SDS011;4552;43.422;24.592;2022-11-15T00:14:47;29.10;;;12.80;;
9034;SDS011;4552;43.422;24.592;2022-11-15T00:17:14;25.83;;;11.90;;
9034;SDS011;4552;43.422;24.592;2022-11-15T00:19:41;34.83;;;13.77;;
9034;SDS011;4552;43.422;24.592;2022-11-15T00:22:08;28.37;;;12.57;;
9034;SDS011;4552;43.422;24.592;2022-11-15T00:24:35;27.37;;;12.10;;
9034;SDS011;4552;43.422;24.592;2022-11-15T00:27:02;26.67;;;11.43;;
9034;SDS011;4552;43.422;24.592;2022-11-15T00:29:31;29.75;;;13.27;;
9034;SDS011;4552;43.422;24.592;2022-11-15T00:31:58;23.20;;;12.43;;
9034;SDS011;4552;43.422;24.592;2022-11-15T00:34:25;24.47;;;12.50;;
9034;SDS011;4552;43.422;24.592;2022-11-15T00:36:52;25.93;;;11.73;;
9034;SDS011;4552;43.422;24.592;2022-11-15T00:39:20;28.50;;;12.93;;
9034;SDS011;4552;43.422;24.592;2022-11-15T00:41:48;27.13;;;11.47;;
9034;SDS011;4552;43.422;24.592;2022-11-15T00:44:14;26.10;;;11.43;;
9034;SDS011;4552;43.422;24.592;2022-11-15T00:46:43;30.87;;;13.07;;
9034;SDS011;4552;43.422;24.592;2022-11-15T00:49:10;24.20;;;12.17;;
9034;SDS011;4552;43.422;24.592;2022-11-15T00:51:37;34.60;;;12.70;;
9034;SDS011;4552;43.422;24.592;2022-11-15T00:54:04;27.90;;;12.33;;
9034;SDS011;4552;43.422;24.592;2022-11-15T00:56:31;23.50;;;11.53;;
9034;SDS011;4552;43.422;24.592;2022-11-15T00:58:58;33.17;;;12.60;;
9034;SDS011;4552;43.422;24.592;2022-11-15T01:01:25;26.43;;;11.67;;
9034;SDS011;4552;43.422;24.592;2022-11-15T01:03:56;29.73;;;11.93;;
9034;SDS011;4552;43.422;24.592;2022-11-15T01:06:24;31.07;;;11.87;;
9034;SDS011;4552;43.422;24.592;2022-11-15T01:08:51;27.27;;;12.00;;
9034;SDS011;4552;43.422;24.592;2022-11-15T01:11:18;21.80;;;10.80;;
9034;SDS011;4552;43.422;24.592;2022-11-15T01:13:46;28.60;;;12.80;;
9034;SDS011;4552;43.422;24.592;2022-11-15T01:16:13;24.23;;;11.47;;
9034;SDS011;4552;43.422;24.592;2022-11-15T01:18:43;22.93;;;11.80;;
9034;SDS011;4552;43.422;24.592;2022-11-15T01:21:13;27.73;;;11.93;;
9034;SDS011;4552;43.422;24.592;2022-11-15T01:23:42;27.00;;;12.23;;
9034;SDS011;4552;43.422;24.592;2022-11-15T01:26:10;26.97;;;11.43;;
9034;SDS011;4552;43.422;24.592;2022-11-15T01:28:40;24.03;;;10.77;;
9034;SDS011;4552;43.422;24.592;2022-11-15T01:31:09;20.47;;;11.50;;
9034;SDS011;4552;43.422;24.592;2022-11-15T01:33:39;23.17;;;11.33;;
9034;SDS011;4552;43.422;24.592;2022-11-15T01:36:09;22.17;;;10.93;;
9034;SDS011;4552;43.422;24.592;2022-11-15T01:38:41;23.97;;;11.23;;
9034;SDS011;4552;43.422;24.592;2022-11-15T01:41:13;21.17;;;11.10;;
9034;SDS011;4552;43.422;24.592;2022-11-15T01:43:41;20.23;;;10.87;;
9034;SDS011;4552;43.422;24.592;2022-11-15T01:46:13;23.93;;;11.80;;
9034;SDS011;4552;43.422;24.592;2022-11-15T01:48:57;19.87;;;10.80;;
9034;SDS011;4552;43.422;24.592;2022-11-15T01:51:29;28.50;;;11.80;;
9034;SDS011;4552;43.422;24.592;2022-11-15T01:54:02;20.13;;;9.47;;
9034;SDS011;4552;43.422;24.592;2022-11-15T01:56:33;22.70;;;10.47;;
9034;SDS011;4552;43.422;24.592;2022-11-15T01:59:06;20.00;;;10.37;;
9034;SDS011;4552;43.422;24.592;2022-11-15T02:01:35;24.17;;;11.57;;
9034;SDS011;4552;43.422;24.592;2022-11-15T02:04:03;22.40;;;10.10;;
9034;SDS011;4552;43.422;24.592;2022-11-15T02:06:38;21.27;;;10.80;;
9034;SDS011;4552;43.422;24.592;2022-11-15T02:09:07;20.67;;;10.77;;
9034;SDS011;4552;43.422;24.592;2022-11-15T02:11:36;23.50;;;11.13;;
9034;SDS011;4552;43.422;24.592;2022-11-15T02:14:04;20.07;;;10.33;;
9034;SDS011;4552;43.422;24.592;2022-11-15T02:16:35;19.07;;;10.87;;
9034;SDS011;4552;43.422;24.592;2022-11-15T02:19:17;27.73;;;11.40;;
9034;SDS011;4552;43.422;24.592;2022-11-15T02:22:08;23.03;;;11.30;;
9034;SDS011;4552;43.422;24.592;2022-11-15T02:30:51;18.90;;;10.63;;
9034;SDS011;4552;43.422;24.592;2022-11-15T02:33:26;22.23;;;11.33;;
9034;SDS011;4552;43.422;24.592;2022-11-15T02:36:01;22.53;;;10.17;;
9034;SDS011;4552;43.422;24.592;2022-11-15T02:38:31;19.10;;;10.27;;
9034;SDS011;4552;43.422;24.592;2022-11-15T02:41:09;19.30;;;10.80;;
9034;SDS011;4552;43.422;24.592;2022-11-15T02:43:40;23.97;;;10.43;;
9034;SDS011;4552;43.422;24.592;2022-11-15T02:46:26;21.07;;;10.20;;
9034;SDS011;4552;43.422;24.592;2022-11-15T02:49:16;21.30;;;10.87;;
9034;SDS011;4552;43.422;24.592;2022-11-15T02:51:44;20.63;;;10.30;;
9034;SDS011;4552;43.422;24.592;2022-11-15T02:54:14;21.90;;;10.60;;
9034;SDS011;4552;43.422;24.592;2022-11-15T02:56:46;25.90;;;11.47;;
9034;SDS011;4552;43.422;24.592;2022-11-15T02:59:17;23.87;;;11.20;;
9034;SDS011;4552;43.422;24.592;2022-11-15T03:02:03;20.77;;;10.23;;
9034;SDS011;4552;43.422;24.592;2022-11-15T03:04:45;23.70;;;11.93;;
9034;SDS011;4552;43.422;24.592;2022-11-15T03:07:22;19.90;;;10.17;;
9034;SDS011;4552;43.422;24.592;2022-11-15T03:09:56;23.80;;;10.50;;
9034;SDS011;4552;43.422;24.592;2022-11-15T03:12:36;20.67;;;10.03;;
9034;SDS011;4552;43.422;24.592;2022-11-15T03:15:11;20.17;;;10.80;;
9034;SDS011;4552;43.422;24.592;2022-11-15T03:17:47;18.53;;;9.83;;
9034;SDS011;4552;43.422;24.592;2022-11-15T03:20:19;20.90;;;10.80;;
9034;SDS011;4552;43.422;24.592;2022-11-15T03:22:48;18.77;;;10.17;;
9034;SDS011;4552;43.422;24.592;2022-11-15T03:25:17;22.27;;;11.20;;
9034;SDS011;4552;43.422;24.592;2022-11-15T03:27:50;23.57;;;10.73;;
9034;SDS011;4552;43.422;24.592;2022-11-15T03:30:21;23.00;;;11.80;;
9034;SDS011;4552;43.422;24.592;2022-11-15T03:32:51;19.43;;;10.97;;
9034;SDS011;4552;43.422;24.592;2022-11-15T03:35:22;16.57;;;10.10;;
9034;SDS011;4552;43.422;24.592;2022-11-15T03:37:53;22.93;;;9.47;;
9034;SDS011;4552;43.422;24.592;2022-11-15T03:40:24;18.33;;;9.60;;
9034;SDS011;4552;43.422;24.592;2022-11-15T03:42:57;18.57;;;10.00;;
9034;SDS011;4552;43.422;24.592;2022-11-15T03:45:31;20.37;;;9.77;;
9034;SDS011;4552;43.422;24.592;2022-11-15T03:48:07;22.60;;;10.50;;
9034;SDS011;4552;43.422;24.592;2022-11-15T03:50:39;17.93;;;9.97;;
9034;SDS011;4552;43.422;24.592;2022-11-15T03:53:08;19.13;;;10.20;;
9034;SDS011;4552;43.422;24.592;2022-11-15T03:55:35;16.70;;;10.03;;
9034;SDS011;4552;43.422;24.592;2022-11-15T03:58:02;17.87;;;9.63;;
9034;SDS011;4552;43.422;24.592;2022-11-15T04:00:30;23.63;;;10.50;;
9034;SDS011;4552;43.422;24.592;2022-11-15T04:02:57;20.63;;;9.67;;
9034;SDS011;4552;43.422;24.592;2022-11-15T04:05:25;18.37;;;10.20;;
9034;SDS011;4552;43.422;24.592;2022-11-15T04:07:52;18.03;;;9.53;;
9034;SDS011;4552;43.422;24.592;2022-11-15T04:10:20;22.13;;;9.73;;
9034;SDS011;4552;43.422;24.592;2022-11-15T04:12:47;19.70;;;9.50;;
9034;SDS011;4552;43.422;24.592;2022-11-15T04:15:14;18.73;;;9.80;;
9034;SDS011;4552;43.422;24.592;2022-11-15T04:17:43;18.30;;;10.17;;
9034;SDS011;4552;43.422;24.592;2022-11-15T04:20:12;21.00;;;9.57;;
9034;SDS011;4552;43.422;24.592;2022-11-15T04:23:01;19.23;;;10.30;;
9034;SDS011;4552;43.422;24.592;2022-11-15T04:25:48;20.63;;;10.23;;
9034;SDS011;4552;43.422;24.592;2022-11-15T04:28:17;19.13;;;10.77;;
9034;SDS011;4552;43.422;24.592;2022-11-15T04:30:45;19.30;;;9.80;;
9034;SDS011;4552;43.422;24.592;2022-11-15T04:33:12;28.90;;;11.50;;
9034;SDS011;4552;43.422;24.592;2022-11-15T04:35:40;21.63;;;9.93;;
9034;SDS011;4552;43.422;24.592;2022-11-15T04:38:10;20.33;;;10.53;;
9034;SDS011;4552;43.422;24.592;2022-11-15T04:40:37;18.77;;;9.63;;
9034;SDS011;4552;43.422;24.592;2022-11-15T04:43:04;19.83;;;11.67;;
9034;SDS011;4552;43.422;24.592;2022-11-15T04:45:32;20.67;;;10.53;;
9034;SDS011;4552;43.422;24.592;2022-11-15T04:48:00;21.77;;;10.20;;
9034;SDS011;4552;43.422;24.592;2022-11-15T04:50:26;17.37;;;10.27;;
9034;SDS011;4552;43.422;24.592;2022-11-15T04:52:54;15.97;;;9.20;;
9034;SDS011;4552;43.422;24.592;2022-11-15T04:55:22;23.90;;;10.17;;
9034;SDS011;4552;43.422;24.592;2022-11-15T04:57:56;18.90;;;10.03;;
9034;SDS011;4552;43.422;24.592;2022-11-15T05:00:25;20.30;;;10.07;;
9034;SDS011;4552;43.422;24.592;2022-11-15T05:02:53;18.83;;;9.80;;
9034;SDS011;4552;43.422;24.592;2022-11-15T05:05:38;18.90;;;10.33;;
9034;SDS011;4552;43.422;24.592;2022-11-15T05:08:05;22.53;;;10.70;;
9034;SDS011;4552;43.422;24.592;2022-11-15T05:10:36;18.50;;;9.90;;
9034;SDS011;4552;43.422;24.592;2022-11-15T05:13:04;22.20;;;10.53;;
9034;SDS011;4552;43.422;24.592;2022-11-15T05:15:31;20.40;;;10.77;;
9034;SDS011;4552;43.422;24.592;2022-11-15T05:17:59;24.33;;;10.47;;
9034;SDS011;4552;43.422;24.592;2022-11-15T05:20:26;17.70;;;10.20;;
9034;SDS011;4552;43.422;24.592;2022-11-15T05:22:53;18.87;;;9.83;;
9034;SDS011;4552;43.422;24.592;2022-11-15T05:25:21;20.47;;;10.50;;
9034;SDS011;4552;43.422;24.592;2022-11-15T05:27:50;17.33;;;10.17;;
9034;SDS011;4552;43.422;24.592;2022-11-15T05:30:19;19.10;;;10.37;;
9034;SDS011;4552;43.422;24.592;2022-11-15T05:32:47;20.13;;;10.63;;
9034;SDS011;4552;43.422;24.592;2022-11-15T05:35:17;21.77;;;9.30;;
9034;SDS011;4552;43.422;24.592;2022-11-15T05:37:48;19.43;;;9.13;;
9034;SDS011;4552;43.422;24.592;2022-11-15T05:40:15;17.60;;;9.60;;
9034;SDS011;4552;43.422;24.592;2022-11-15T05:42:43;17.70;;;9.87;;
9034;SDS011;4552;43.422;24.592;2022-11-15T05:45:13;13.93;;;7.73;;
9034;SDS011;4552;43.422;24.592;2022-11-15T05:47:41;16.87;;;8.80;;
9034;SDS011;4552;43.422;24.592;2022-11-15T05:50:10;23.75;;;12.85;;
9034;SDS011;4552;43.422;24.592;2022-11-15T05:52:41;20.47;;;10.63;;
9034;SDS011;4552;43.422;24.592;2022-11-15T05:55:09;18.47;;;10.07;;
9034;SDS011;4552;43.422;24.592;2022-11-15T05:57:36;17.80;;;9.97;;
9034;SDS011;4552;43.422;24.592;2022-11-15T06:00:04;24.37;;;9.97;;
9034;SDS011;4552;43.422;24.592;2022-11-15T06:02:34;18.07;;;9.60;;
9034;SDS011;4552;43.422;24.592;2022-11-15T06:05:03;19.30;;;10.27;;
9034;SDS011;4552;43.422;24.592;2022-11-15T06:07:30;17.20;;;10.17;;
9034;SDS011;4552;43.422;24.592;2022-11-15T06:09:58;19.37;;;9.70;;
9034;SDS011;4552;43.422;24.592;2022-11-15T06:12:25;23.23;;;10.53;;
9034;SDS011;4552;43.422;24.592;2022-11-15T06:14:52;20.87;;;10.37;;
9034;SDS011;4552;43.422;24.592;2022-11-15T06:17:19;17.07;;;9.30;;
9034;SDS011;4552;43.422;24.592;2022-11-15T06:19:48;19.73;;;10.00;;
9034;SDS011;4552;43.422;24.592;2022-11-15T06:22:16;18.88;;;10.55;;
9034;SDS011;4552;43.422;24.592;2022-11-15T06:24:43;19.83;;;9.90;;
9034;SDS011;4552;43.422;24.592;2022-11-15T06:27:10;18.13;;;9.63;;
9034;SDS011;4552;43.422;24.592;2022-11-15T06:29:37;17.80;;;9.03;;
9034;SDS011;4552;43.422;24.592;2022-11-15T06:32:04;18.17;;;10.40;;
9034;SDS011;4552;43.422;24.592;2022-11-15T06:34:32;19.90;;;11.20;;
9034;SDS011;4552;43.422;24.592;2022-11-15T06:37:02;18.10;;;9.67;;
9034;SDS011;4552;43.422;24.592;2022-11-15T06:39:29;18.73;;;10.40;;
9034;SDS011;4552;43.422;24.592;2022-11-15T06:41:56;16.77;;;10.07;;
9034;SDS011;4552;43.422;24.592;2022-11-15T06:44:23;25.37;;;13.80;;
9034;SDS011;4552;43.422;24.592;2022-11-15T06:46:50;19.07;;;10.80;;
9034;SDS011;4552;43.422;24.592;2022-11-15T06:49:17;22.37;;;10.27;;
9034;SDS011;4552;43.422;24.592;2022-11-15T06:51:44;25.03;;;13.93;;
9034;SDS011;4552;43.422;24.592;2022-11-15T06:54:13;20.73;;;10.63;;
9034;SDS011;4552;43.422;24.592;2022-11-15T06:56:40;25.23;;;11.83;;
9034;SDS011;4552;43.422;24.592;2022-11-15T06:59:07;19.70;;;11.47;;
9034;SDS011;4552;43.422;24.592;2022-11-15T07:01:34;20.90;;;10.60;;
9034;SDS011;4552;43.422;24.592;2022-11-15T07:04:01;16.93;;;10.27;;
9034;SDS011;4552;43.422;24.592;2022-11-15T07:06:28;25.03;;;11.07;;
9034;SDS011;4552;43.422;24.592;2022-11-15T07:08:55;19.17;;;10.23;;
9034;SDS011;4552;43.422;24.592;2022-11-15T07:11:25;19.23;;;10.40;;
9034;SDS011;4552;43.422;24.592;2022-11-15T07:13:53;21.33;;;10.40;;
9034;SDS011;4552;43.422;24.592;2022-11-15T07:16:19;21.23;;;10.33;;
9034;SDS011;4552;43.422;24.592;2022-11-15T07:18:47;17.53;;;10.07;;
9034;SDS011;4552;43.422;24.592;2022-11-15T07:21:13;20.57;;;11.07;;
9034;SDS011;4552;43.422;24.592;2022-11-15T07:23:40;19.07;;;11.20;;
9034;SDS011;4552;43.422;24.592;2022-11-15T07:26:07;16.50;;;9.47;;
9034;SDS011;4552;43.422;24.592;2022-11-15T07:28:36;19.83;;;10.30;;
9034;SDS011;4552;43.422;24.592;2022-11-15T07:31:04;21.97;;;11.67;;
9034;SDS011;4552;43.422;24.592;2022-11-15T07:33:33;18.00;;;9.07;;
9034;SDS011;4552;43.422;24.592;2022-11-15T07:36:02;18.37;;;9.13;;
9034;SDS011;4552;43.422;24.592;2022-11-15T07:38:34;19.93;;;10.80;;
9034;SDS011;4552;43.422;24.592;2022-11-15T07:41:03;18.57;;;11.13;;
9034;SDS011;4552;43.422;24.592;2022-11-15T07:43:32;19.90;;;10.07;;
9034;SDS011;4552;43.422;24.592;2022-11-15T07:46:03;13.33;;;8.60;;
9034;SDS011;4552;43.422;24.592;2022-11-15T07:48:32;13.97;;;8.93;;
9034;SDS011;4552;43.422;24.592;2022-11-15T07:50:59;17.17;;;9.47;;
9034;SDS011;4552;43.422;24.592;2022-11-15T07:53:27;16.17;;;9.87;;
9034;SDS011;4552;43.422;24.592;2022-11-15T07:55:54;22.27;;;10.70;;
9034;SDS011;4552;43.422;24.592;2022-11-15T07:58:21;17.80;;;10.50;;
9034;SDS011;4552;43.422;24.592;2022-11-15T08:00:48;18.13;;;9.43;;
9034;SDS011;4552;43.422;24.592;2022-11-15T08:03:17;14.10;;;8.50;;
9034;SDS011;4552;43.422;24.592;2022-11-15T08:05:49;16.47;;;9.03;;
9034;SDS011;4552;43.422;24.592;2022-11-15T08:08:17;19.70;;;10.03;;
9034;SDS011;4552;43.422;24.592;2022-11-15T08:10:44;15.87;;;9.07;;
9034;SDS011;4552;43.422;24.592;2022-11-15T08:13:12;16.90;;;9.33;;
9034;SDS011;4552;43.422;24.592;2022-11-15T08:15:39;13.90;;;8.20;;
9034;SDS011;4552;43.422;24.592;2022-11-15T08:18:08;12.93;;;8.30;;
9034;SDS011;4552;43.422;24.592;2022-11-15T08:20:39;19.13;;;8.63;;
9034;SDS011;4552;43.422;24.592;2022-11-15T08:23:07;15.27;;;8.97;;
9034;SDS011;4552;43.422;24.592;2022-11-15T08:25:36;17.57;;;9.20;;
9034;SDS011;4552;43.422;24.592;2022-11-15T08:28:04;13.37;;;8.03;;
9034;SDS011;4552;43.422;24.592;2022-11-15T08:30:34;14.83;;;8.23;;
9034;SDS011;4552;43.422;24.592;2022-11-15T08:33:03;13.73;;;8.00;;
9034;SDS011;4552;43.422;24.592;2022-11-15T08:35:30;13.67;;;7.77;;
9034;SDS011;4552;43.422;24.592;2022-11-15T08:37:58;13.47;;;8.43;;
9034;SDS011;4552;43.422;24.592;2022-11-15T08:40:25;12.40;;;7.77;;
9034;SDS011;4552;43.422;24.592;2022-11-15T08:42:53;13.57;;;8.27;;
9034;SDS011;4552;43.422;24.592;2022-11-15T08:45:20;14.67;;;8.33;;
9034;SDS011;4552;43.422;24.592;2022-11-15T08:47:47;11.50;;;7.90;;
9034;SDS011;4552;43.422;24.592;2022-11-15T08:50:15;13.90;;;8.17;;
9034;SDS011;4552;43.422;24.592;2022-11-15T08:52:42;11.90;;;7.40;;
9034;SDS011;4552;43.422;24.592;2022-11-15T08:55:10;11.13;;;7.33;;
9034;SDS011;4552;43.422;24.592;2022-11-15T08:57:37;11.87;;;7.53;;
9034;SDS011;4552;43.422;24.592;2022-11-15T09:00:05;10.57;;;7.00;;
9034;SDS011;4552;43.422;24.592;2022-11-15T09:02:33;12.60;;;6.63;;
9034;SDS011;4552;43.422;24.592;2022-11-15T09:05:00;9.57;;;6.50;;
9034;SDS011;4552;43.422;24.592;2022-11-15T09:07:27;13.53;;;7.10;;
9034;SDS011;4552;43.422;24.592;2022-11-15T09:09:55;9.97;;;6.37;;
9034;SDS011;4552;43.422;24.592;2022-11-15T09:12:24;11.03;;;6.60;;
9034;SDS011;4552;43.422;24.592;2022-11-15T09:14:51;10.23;;;6.40;;
9034;SDS011;4552;43.422;24.592;2022-11-15T09:17:20;10.50;;;6.80;;
9034;SDS011;4552;43.422;24.592;2022-11-15T09:19:47;9.17;;;6.17;;
9034;SDS011;4552;43.422;24.592;2022-11-15T09:22:14;13.43;;;7.43;;
9034;SDS011;4552;43.422;24.592;2022-11-15T09:24:41;14.00;;;8.30;;
9034;SDS011;4552;43.422;24.592;2022-11-15T09:27:08;29.67;;;19.13;;
9034;SDS011;4552;43.422;24.592;2022-11-15T09:29:36;7.97;;;4.93;;
9034;SDS011;4552;43.422;24.592;2022-11-15T09:32:05;8.07;;;5.40;;
9034;SDS011;4552;43.422;24.592;2022-11-15T09:34:32;7.63;;;5.40;;
9034;SDS011;4552;43.422;24.592;2022-11-15T09:36:59;7.63;;;5.57;;
9034;SDS011;4552;43.422;24.592;2022-11-15T09:39:27;9.07;;;5.23;;
9034;SDS011;4552;43.422;24.592;2022-11-15T09:42:04;5.87;;;4.20;;
9034;SDS011;4552;43.422;24.592;2022-11-15T09:44:55;6.40;;;4.07;;
9034;SDS011;4552;43.422;24.592;2022-11-15T09:47:38;6.63;;;3.77;;
9034;SDS011;4552;43.422;24.592;2022-11-15T09:50:31;5.97;;;4.20;;
9034;SDS011;4552;43.422;24.592;2022-11-15T09:53:01;5.90;;;4.07;;
9034;SDS011;4552;43.422;24.592;2022-11-15T09:55:32;4.30;;;3.90;;
9034;SDS011;4552;43.422;24.592;2022-11-15T09:58:10;7.93;;;5.33;;
9034;SDS011;4552;43.422;24.592;2022-11-15T10:00:50;6.03;;;3.97;;
9034;SDS011;4552;43.422;24.592;2022-11-15T10:03:22;5.57;;;4.13;;
9034;SDS011;4552;43.422;24.592;2022-11-15T10:05:54;5.97;;;3.87;;
9034;SDS011;4552;43.422;24.592;2022-11-15T10:08:30;5.30;;;3.93;;
9034;SDS011;4552;43.422;24.592;2022-11-15T10:11:03;15.13;;;8.27;;
9034;SDS011;4552;43.422;24.592;2022-11-15T10:13:33;7.47;;;5.10;;
9034;SDS011;4552;43.422;24.592;2022-11-15T10:16:07;7.30;;;5.20;;
9034;SDS011;4552;43.422;24.592;2022-11-15T10:18:51;5.40;;;3.93;;
9034;SDS011;4552;43.422;24.592;2022-11-15T10:21:29;7.60;;;4.60;;
9034;SDS011;4552;43.422;24.592;2022-11-15T10:26:45;8.40;;;4.53;;
9034;SDS011;4552;43.422;24.592;2022-11-15T10:29:17;5.47;;;4.10;;
9034;SDS011;4552;43.422;24.592;2022-11-15T10:31:48;9.23;;;6.17;;
9034;SDS011;4552;43.422;24.592;2022-11-15T10:34:16;6.83;;;4.20;;
9034;SDS011;4552;43.422;24.592;2022-11-15T10:36:45;5.17;;;3.90;;
9034;SDS011;4552;43.422;24.592;2022-11-15T10:39:20;8.30;;;5.70;;
9034;SDS011;4552;43.422;24.592;2022-11-15T10:41:47;12.50;;;7.60;;
9034;SDS011;4552;43.422;24.592;2022-11-15T10:44:21;15.90;;;8.70;;
9034;SDS011;4552;43.422;24.592;2022-11-15T10:47:07;6.33;;;4.03;;
9034;SDS011;4552;43.422;24.592;2022-11-15T10:49:59;4.80;;;4.10;;
9034;SDS011;4552;43.422;24.592;2022-11-15T10:52:31;7.07;;;4.00;;
9034;SDS011;4552;43.422;24.592;2022-11-15T10:55:02;5.07;;;4.07;;
9034;SDS011;4552;43.422;24.592;2022-11-15T10:57:33;7.40;;;4.50;;
9034;SDS011;4552;43.422;24.592;2022-11-15T11:00:04;5.97;;;4.23;;
9034;SDS011;4552;43.422;24.592;2022-11-15T11:02:36;7.80;;;4.00;;
9034;SDS011;4552;43.422;24.592;2022-11-15T11:05:05;4.07;;;3.20;;
9034;SDS011;4552;43.422;24.592;2022-11-15T11:07:55;6.17;;;3.30;;
9034;SDS011;4552;43.422;24.592;2022-11-15T11:10:28;4.80;;;3.90;;
9034;SDS011;4552;43.422;24.592;2022-11-15T11:12:55;5.33;;;4.17;;
9034;SDS011;4552;43.422;24.592;2022-11-15T11:15:38;8.60;;;5.47;;
9034;SDS011;4552;43.422;24.592;2022-11-15T11:18:13;5.63;;;3.43;;
9034;SDS011;4552;43.422;24.592;2022-11-15T11:20:49;6.80;;;4.95;;
9034;SDS011;4552;43.422;24.592;2022-11-15T11:23:27;4.67;;;3.90;;
9034;SDS011;4552;43.422;24.592;2022-11-15T11:26:12;5.37;;;3.80;;
9034;SDS011;4552;43.422;24.592;2022-11-15T11:28:48;3.70;;;3.17;;
9034;SDS011;4552;43.422;24.592;2022-11-15T11:31:28;4.27;;;3.40;;
9034;SDS011;4552;43.422;24.592;2022-11-15T11:34:10;6.63;;;3.50;;
9034;SDS011;4552;43.422;24.592;2022-11-15T11:36:44;5.47;;;3.50;;
9034;SDS011;4552;43.422;24.592;2022-11-15T11:39:24;5.70;;;4.07;;
9034;SDS011;4552;43.422;24.592;2022-11-15T11:42:02;4.80;;;3.90;;
9034;SDS011;4552;43.422;24.592;2022-11-15T11:44:42;5.97;;;3.97;;
9034;SDS011;4552;43.422;24.592;2022-11-15T11:47:21;6.27;;;4.10;;
9034;SDS011;4552;43.422;24.592;2022-11-15T11:49:53;5.23;;;3.73;;
9034;SDS011;4552;43.422;24.592;2022-11-15T11:52:26;4.73;;;3.77;;
9034;SDS011;4552;43.422;24.592;2022-11-15T11:54:59;3.50;;;3.00;;
9034;SDS011;4552;43.422;24.592;2022-11-15T11:57:33;4.80;;;3.50;;
9034;SDS011;4552;43.422;24.592;2022-11-15T12:00:14;3.77;;;3.33;;
9034;SDS011;4552;43.422;24.592;2022-11-15T12:02:47;4.83;;;3.77;;
9034;SDS011;4552;43.422;24.592;2022-11-15T12:05:25;4.43;;;3.43;;
9034;SDS011;4552;43.422;24.592;2022-11-15T12:08:04;4.07;;;3.67;;
9034;SDS011;4552;43.422;24.592;2022-11-15T12:10:46;4.17;;;3.27;;
9034;SDS011;4552;43.422;24.592;2022-11-15T12:13:21;4.83;;;3.83;;
9034;SDS011;4552;43.422;24.592;2022-11-15T12:15:53;5.03;;;3.73;;
9034;SDS011;4552;43.422;24.592;2022-11-15T12:18:25;4.90;;;3.80;;
9034;SDS011;4552;43.422;24.592;2022-11-15T12:20:55;4.70;;;3.80;;
9034;SDS011;4552;43.422;24.592;2022-11-15T12:23:26;4.77;;;3.57;;
9034;SDS011;4552;43.422;24.592;2022-11-15T12:26:04;5.40;;;3.73;;
9034;SDS011;4552;43.422;24.592;2022-11-15T12:28:44;4.63;;;3.83;;
9034;SDS011;4552;43.422;24.592;2022-11-15T12:31:23;6.97;;;4.00;;
9034;SDS011;4552;43.422;24.592;2022-11-15T12:33:57;4.90;;;3.80;;
9034;SDS011;4552;43.422;24.592;2022-11-15T12:36:34;6.57;;;4.80;;
9034;SDS011;4552;43.422;24.592;2022-11-15T12:39:19;7.17;;;5.07;;
9034;SDS011;4552;43.422;24.592;2022-11-15T12:45:03;6.60;;;3.93;;
9034;SDS011;4552;43.422;24.592;2022-11-15T12:47:55;8.30;;;4.60;;
9034;SDS011;4552;43.422;24.592;2022-11-15T12:50:55;6.80;;;4.13;;
9034;SDS011;4552;43.422;24.592;2022-11-15T12:53:28;6.70;;;4.87;;
9034;SDS011;4552;43.422;24.592;2022-11-15T12:56:16;5.43;;;3.90;;
9034;SDS011;4552;43.422;24.592;2022-11-15T12:58:47;7.13;;;4.43;;
9034;SDS011;4552;43.422;24.592;2022-11-15T13:04:26;6.70;;;4.27;;
9034;SDS011;4552;43.422;24.592;2022-11-15T13:06:59;8.57;;;4.43;;
9034;SDS011;4552;43.422;24.592;2022-11-15T13:21:05;5.83;;;4.67;;
9034;SDS011;4552;43.422;24.592;2022-11-15T13:24:03;5.83;;;4.17;;
9034;SDS011;4552;43.422;24.592;2022-11-15T13:26:34;5.17;;;4.33;;
9034;SDS011;4552;43.422;24.592;2022-11-15T13:29:04;5.87;;;4.07;;
9034;SDS011;4552;43.422;24.592;2022-11-15T13:31:42;5.93;;;4.10;;
9034;SDS011;4552;43.422;24.592;2022-11-15T13:36:53;6.53;;;4.53;;
9034;SDS011;4552;43.422;24.592;2022-11-15T13:39:26;7.87;;;4.93;;
9034;SDS011;4552;43.422;24.592;2022-11-15T13:41:56;6.70;;;4.70;;
9034;SDS011;4552;43.422;24.592;2022-11-15T13:44:24;7.23;;;5.10;;
9034;SDS011;4552;43.422;24.592;2022-11-15T13:47:14;6.80;;;4.50;;
9034;SDS011;4552;43.422;24.592;2022-11-15T13:49:52;6.07;;;4.80;;
9034;SDS011;4552;43.422;24.592;2022-11-15T13:53:19;13.07;;;7.67;;
9034;SDS011;4552;43.422;24.592;2022-11-15T13:56:00;13.35;;;8.43;;
9034;SDS011;4552;43.422;24.592;2022-11-15T13:58:30;7.03;;;4.90;;
9034;SDS011;4552;43.422;24.592;2022-11-15T14:01:13;7.20;;;4.77;;
9034;SDS011;4552;43.422;24.592;2022-11-15T14:03:58;15.20;;;8.20;;
9034;SDS011;4552;43.422;24.592;2022-11-15T14:09:48;5.57;;;4.40;;
9034;SDS011;4552;43.422;24.592;2022-11-15T14:12:23;5.13;;;4.10;;
9034;SDS011;4552;43.422;24.592;2022-11-15T14:15:24;8.20;;;5.20;;
9034;SDS011;4552;43.422;24.592;2022-11-15T14:17:54;5.83;;;4.33;;
9034;SDS011;4552;43.422;24.592;2022-11-15T14:20:28;11.50;;;4.93;;
9034;SDS011;4552;43.422;24.592;2022-11-15T14:23:04;8.50;;;5.63;;
9034;SDS011;4552;43.422;24.592;2022-11-15T14:25:51;10.70;;;4.17;;
9034;SDS011;4552;43.422;24.592;2022-11-15T14:28:28;6.83;;;4.40;;
9034;SDS011;4552;43.422;24.592;2022-11-15T14:30:59;5.77;;;4.17;;
9034;SDS011;4552;43.422;24.592;2022-11-15T14:33:28;6.10;;;4.60;;
9034;SDS011;4552;43.422;24.592;2022-11-15T14:35:57;7.37;;;5.20;;
9034;SDS011;4552;43.422;24.592;2022-11-15T14:38:28;7.13;;;5.40;;
9034;SDS011;4552;43.422;24.592;2022-11-15T14:41:00;7.43;;;5.07;;
9034;SDS011;4552;43.422;24.592;2022-11-15T14:43:27;5.87;;;4.27;;
9034;SDS011;4552;43.422;24.592;2022-11-15T14:45:55;9.35;;;6.63;;
9034;SDS011;4552;43.422;24.592;2022-11-15T14:48:23;6.87;;;5.37;;
9034;SDS011;4552;43.422;24.592;2022-11-15T14:50:51;8.53;;;4.90;;
9034;SDS011;4552;43.422;24.592;2022-11-15T14:53:18;8.20;;;5.00;;
9034;SDS011;4552;43.422;24.592;2022-11-15T14:55:51;4.97;;;4.30;;
9034;SDS011;4552;43.422;24.592;2022-11-15T15:01:47;5.67;;;4.50;;
9034;SDS011;4552;43.422;24.592;2022-11-15T15:08:27;7.43;;;5.03;;
9034;SDS011;4552;43.422;24.592;2022-11-15T15:10:54;8.13;;;6.10;;
9034;SDS011;4552;43.422;24.592;2022-11-15T15:13:22;9.50;;;7.13;;
9034;SDS011;4552;43.422;24.592;2022-11-15T15:15:50;10.67;;;6.40;;
9034;SDS011;4552;43.422;24.592;2022-11-15T15:18:18;10.20;;;5.80;;
9034;SDS011;4552;43.422;24.592;2022-11-15T15:20:49;8.37;;;5.10;;
9034;SDS011;4552;43.422;24.592;2022-11-15T15:23:25;7.20;;;5.20;;
9034;SDS011;4552;43.422;24.592;2022-11-15T15:25:55;5.87;;;4.50;;
9034;SDS011;4552;43.422;24.592;2022-11-15T15:28:22;7.50;;;4.63;;
9034;SDS011;4552;43.422;24.592;2022-11-15T15:30:49;5.37;;;4.37;;
9034;SDS011;4552;43.422;24.592;2022-11-15T15:33:17;6.77;;;5.07;;
9034;SDS011;4552;43.422;24.592;2022-11-15T15:35:44;6.87;;;5.10;;
9034;SDS011;4552;43.422;24.592;2022-11-15T15:38:12;8.97;;;5.70;;
9034;SDS011;4552;43.422;24.592;2022-11-15T15:40:40;6.07;;;4.60;;
9034;SDS011;4552;43.422;24.592;2022-11-15T15:43:09;6.27;;;5.13;;
9034;SDS011;4552;43.422;24.592;2022-11-15T15:45:36;6.60;;;4.90;;
9034;SDS011;4552;43.422;24.592;2022-11-15T15:48:05;7.07;;;4.87;;
9034;SDS011;4552;43.422;24.592;2022-11-15T15:50:32;7.90;;;5.43;;
9034;SDS011;4552;43.422;24.592;2022-11-15T15:53:01;6.83;;;5.13;;